createdAt,value
2017-09-11T00:00:52.201Z,962.14
2017-09-11T00:02:02.466Z,962.13
2017-09-11T00:03:12.732Z,962.08
2017-09-11T00:04:22.690Z,962.11
2017-09-11T00:05:32.631Z,962.13
2017-09-11T00:06:42.890Z,962.13
2017-09-11T00:07:53.156Z,962.11
2017-09-11T00:09:03.099Z,962.11
2017-09-11T00:10:13.360Z,962.13
2017-09-11T00:11:23.297Z,962.14
2017-09-11T00:12:33.240Z,962.12
2017-09-11T00:13:43.181Z,962.1
2017-09-11T00:14:53.125Z,962.15
2017-09-11T00:16:03.068Z,962.12
2017-09-11T00:17:13.345Z,962.18
2017-09-11T00:18:23.602Z,962.1
2017-09-11T00:19:33.870Z,962.16
2017-09-11T00:20:43.168Z,962.12
2017-09-11T00:21:53.110Z,962.15
2017-09-11T00:23:03.058Z,962.14
2017-09-11T00:24:13.000Z,962.17
2017-09-11T00:25:23.270Z,962.16
2017-09-11T00:26:33.214Z,962.15
2017-09-11T00:27:43.161Z,962.14
2017-09-11T00:28:52.785Z,962.1
2017-09-11T00:30:02.735Z,962.12
2017-09-11T00:31:12.352Z,962.07
2017-09-11T00:32:22.301Z,962.08
2017-09-11T00:33:32.246Z,962.11
2017-09-11T00:34:42.511Z,962.09
2017-09-11T00:35:52.453Z,962.14
2017-09-11T00:37:02.713Z,962.16
2017-09-11T00:38:12.649Z,962.16
2017-09-11T00:39:22.910Z,962.17
2017-09-11T00:40:32.861Z,962.17
2017-09-11T00:41:43.124Z,962.12
2017-09-11T00:42:53.072Z,962.14
2017-09-11T00:44:03.330Z,962.09
2017-09-11T00:45:13.269Z,962.08
2017-09-11T00:46:23.527Z,962.14
2017-09-11T00:47:33.789Z,962.15
2017-09-11T00:48:44.048Z,962.15
2017-09-11T00:49:54.304Z,962.19
2017-09-11T00:51:04.249Z,962.18
2017-09-11T00:52:14.188Z,962.2
2017-09-11T00:53:24.451Z,962.22
2017-09-11T00:54:34.713Z,962.26
2017-09-11T00:55:44.980Z,962.25
2017-09-11T00:56:55.241Z,962.27
2017-09-11T00:58:05.495Z,962.27
2017-09-11T00:59:15.750Z,962.29
2017-09-11T01:00:26.027Z,962.29
2017-09-11T01:01:35.966Z,962.23
2017-09-11T01:02:45.907Z,962.24
2017-09-11T01:03:56.164Z,962.25
2017-09-11T01:05:06.428Z,962.19
2017-09-11T01:06:16.691Z,962.2
2017-09-11T01:07:26.951Z,962.23
2017-09-11T01:08:37.215Z,962.2
2017-09-11T01:09:47.476Z,962.2
2017-09-11T01:10:57.418Z,962.19
2017-09-11T01:12:07.352Z,962.16
2017-09-11T01:13:16.979Z,962.15
2017-09-11T01:14:27.237Z,962.17
2017-09-11T01:15:37.180Z,962.22
2017-09-11T01:16:47.449Z,962.16
2017-09-11T01:17:57.709Z,962.12
2017-09-11T01:19:07.330Z,962.12
2017-09-11T01:20:17.593Z,962.07
2017-09-11T01:21:27.851Z,962.11
2017-09-11T01:22:38.122Z,962.11
2017-09-11T01:23:48.381Z,962.14
2017-09-11T01:24:58.318Z,962.11
2017-09-11T01:26:08.264Z,962.15
2017-09-11T01:27:17.886Z,962.15
2017-09-11T01:28:28.145Z,962.17
2017-09-11T01:29:38.085Z,962.21
2017-09-11T01:30:48.032Z,962.12
2017-09-11T01:31:58.541Z,962.14
2017-09-11T01:33:08.804Z,962.1
2017-09-11T01:34:19.066Z,962.16
2017-09-11T01:35:29.012Z,962.14
2017-09-11T01:36:38.632Z,962.13
2017-09-11T01:37:48.576Z,962.15
2017-09-11T01:38:58.517Z,962.15
2017-09-11T01:40:08.136Z,962.14
2017-09-11T01:41:18.402Z,962.15
2017-09-11T01:42:28.346Z,962.14
2017-09-11T01:43:38.618Z,962.1
2017-09-11T01:44:48.564Z,962.1
2017-09-11T01:45:58.826Z,962.14
2017-09-11T01:47:08.769Z,962.14
2017-09-11T01:48:19.029Z,962.14
2017-09-11T01:49:29.299Z,962.17
2017-09-11T01:50:39.567Z,962.17
2017-09-11T01:51:49.830Z,962.17
2017-09-11T01:52:59.455Z,962.17
2017-09-11T01:54:09.718Z,962.15
2017-09-11T01:55:19.656Z,962.09
2017-09-11T01:56:29.623Z,962.1
2017-09-11T01:57:39.894Z,962.1
2017-09-11T01:58:49.515Z,962.09
2017-09-11T01:59:59.814Z,962.04
2017-09-11T02:01:09.735Z,962.01
2017-09-11T02:02:19.672Z,962
2017-09-11T02:03:29.619Z,961.99
2017-09-11T02:04:39.898Z,961.99
2017-09-11T02:05:49.838Z,961.98
2017-09-11T02:06:59.778Z,961.97
2017-09-11T02:08:09.724Z,961.98
2017-09-11T02:09:19.990Z,961.91
2017-09-11T02:10:29.931Z,961.92
2017-09-11T02:11:40.194Z,961.93
2017-09-11T02:12:50.137Z,961.95
2017-09-11T02:14:00.400Z,961.96
2017-09-11T02:15:10.380Z,961.94
2017-09-11T02:16:19.999Z,962
2017-09-11T02:17:30.260Z,961.98
2017-09-11T02:18:40.518Z,961.97
2017-09-11T02:19:50.146Z,961.96
2017-09-11T02:21:00.092Z,961.97
2017-09-11T02:22:10.030Z,961.95
2017-09-11T02:23:20.293Z,961.93
2017-09-11T02:24:30.553Z,961.94
2017-09-11T02:25:40.826Z,961.92
2017-09-11T02:26:50.131Z,961.94
2017-09-11T02:28:00.072Z,961.89
2017-09-11T02:29:10.342Z,961.93
2017-09-11T02:30:19.961Z,961.94
2017-09-11T02:31:29.585Z,961.92
2017-09-11T02:32:39.532Z,961.91
2017-09-11T02:33:49.809Z,961.92
2017-09-11T02:35:00.075Z,961.9
2017-09-11T02:36:09.694Z,961.88
2017-09-11T02:37:19.322Z,961.88
2017-09-11T02:38:29.586Z,961.89
2017-09-11T02:39:39.531Z,961.8
2017-09-11T02:40:49.811Z,961.84
2017-09-11T02:42:00.229Z,961.78
2017-09-11T02:43:10.172Z,961.95
2017-09-11T02:44:20.438Z,961.88
2017-09-11T02:45:30.062Z,961.87
2017-09-11T02:46:40.332Z,961.89
2017-09-11T02:47:50.597Z,961.88
2017-09-11T02:49:00.900Z,961.82
2017-09-11T02:50:11.179Z,961.79
2017-09-11T02:51:21.440Z,961.79
2017-09-11T02:52:31.704Z,961.82
2017-09-11T02:53:41.326Z,961.77
2017-09-11T02:54:51.592Z,961.8
2017-09-11T02:56:01.856Z,961.8
2017-09-11T02:57:11.804Z,961.8
2017-09-11T02:58:22.075Z,961.78
2017-09-11T02:59:32.342Z,961.81
2017-09-11T03:00:42.287Z,961.8
2017-09-11T03:01:52.560Z,961.81
2017-09-11T03:03:02.539Z,961.8
2017-09-11T03:04:12.477Z,961.77
2017-09-11T03:05:22.419Z,961.77
2017-09-11T03:06:32.683Z,961.71
2017-09-11T03:07:42.951Z,961.71
2017-09-11T03:08:52.565Z,961.71
2017-09-11T03:10:02.829Z,961.73
2017-09-11T03:11:12.768Z,961.68
2017-09-11T03:12:22.384Z,961.7
2017-09-11T03:13:32.016Z,961.7
2017-09-11T03:14:42.288Z,961.68
2017-09-11T03:15:52.227Z,961.71
2017-09-11T03:17:02.167Z,961.68
2017-09-11T03:18:12.429Z,961.63
2017-09-11T03:19:22.369Z,961.66
2017-09-11T03:20:32.632Z,961.71
2017-09-11T03:21:42.579Z,961.66
2017-09-11T03:22:52.519Z,961.7
2017-09-11T03:24:02.463Z,961.65
2017-09-11T03:25:12.406Z,961.62
2017-09-11T03:26:22.350Z,961.62
2017-09-11T03:27:32.650Z,961.63
2017-09-11T03:28:42.600Z,961.69
2017-09-11T03:29:52.873Z,961.65
2017-09-11T03:31:02.821Z,961.65
2017-09-11T03:32:12.455Z,961.61
2017-09-11T03:33:22.720Z,961.61
2017-09-11T03:34:32.661Z,961.56
2017-09-11T03:35:42.918Z,961.54
2017-09-11T03:36:52.863Z,961.54
2017-09-11T03:38:02.815Z,961.52
2017-09-11T03:39:12.763Z,961.51
2017-09-11T03:40:23.031Z,961.54
2017-09-11T03:41:33.298Z,961.49
2017-09-11T03:42:43.564Z,961.45
2017-09-11T03:43:53.839Z,961.46
2017-09-11T03:45:04.138Z,961.43
2017-09-11T03:46:14.407Z,961.41
2017-09-11T03:47:24.668Z,961.44
2017-09-11T03:48:34.931Z,961.41
2017-09-11T03:49:45.199Z,961.45
2017-09-11T03:50:55.147Z,961.43
2017-09-11T03:52:05.421Z,961.41
2017-09-11T03:53:15.690Z,961.43
2017-09-11T03:54:25.633Z,961.42
2017-09-11T03:55:35.896Z,961.38
2017-09-11T03:56:45.837Z,961.39
2017-09-11T03:57:56.098Z,961.34
2017-09-11T03:59:05.717Z,961.37
2017-09-11T04:00:15.656Z,961.32
2017-09-11T04:01:25.914Z,961.34
2017-09-11T04:02:36.179Z,961.32
2017-09-11T04:03:46.446Z,961.28
2017-09-11T04:04:56.394Z,961.25
2017-09-11T04:06:06.337Z,961.23
2017-09-11T04:07:16.282Z,961.18
2017-09-11T04:08:26.223Z,961.2
2017-09-11T04:09:36.174Z,961.21
2017-09-11T04:10:46.476Z,961.24
2017-09-11T04:11:56.743Z,961.25
2017-09-11T04:13:06.687Z,961.23
2017-09-11T04:14:16.981Z,961.23
2017-09-11T04:15:27.293Z,961.23
2017-09-11T04:16:37.565Z,961.23
2017-09-11T04:17:47.512Z,961.22
2017-09-11T04:18:57.778Z,961.25
2017-09-11T04:20:07.727Z,961.26
2017-09-11T04:21:17.988Z,961.26
2017-09-11T04:22:27.291Z,961.23
2017-09-11T04:23:37.595Z,961.24
2017-09-11T04:24:47.547Z,961.15
2017-09-11T04:25:57.813Z,961.16
2017-09-11T04:27:07.441Z,961.18
2017-09-11T04:28:17.708Z,961.18
2017-09-11T04:29:27.969Z,961.12
2017-09-11T04:30:38.230Z,961.17
2017-09-11T04:31:47.855Z,961.18
2017-09-11T04:32:58.129Z,961.21
2017-09-11T04:34:08.068Z,961.19
2017-09-11T04:35:17.687Z,961.17
2017-09-11T04:36:27.627Z,961.14
2017-09-11T04:37:37.571Z,961.17
2017-09-11T04:38:47.831Z,961.13
2017-09-11T04:39:57.771Z,961.11
2017-09-11T04:41:08.053Z,961.13
2017-09-11T04:42:18.325Z,961.19
2017-09-11T04:43:28.583Z,961.15
2017-09-11T04:44:38.525Z,961.14
2017-09-11T04:45:48.791Z,961.11
2017-09-11T04:46:59.054Z,961.1
2017-09-11T04:48:08.997Z,961.14
2017-09-11T04:49:19.266Z,961.15
2017-09-11T04:50:29.205Z,961.17
2017-09-11T04:51:39.469Z,961.15
2017-09-11T04:52:49.419Z,961.14
2017-09-11T04:53:59.688Z,961.23
2017-09-11T04:55:09.952Z,961.17
2017-09-11T04:56:19.893Z,961.16
2017-09-11T04:57:29.542Z,961.2
2017-09-11T04:58:39.167Z,961.15
2017-09-11T04:59:49.116Z,961.13
2017-09-11T05:00:58.741Z,961.11
2017-09-11T05:02:08.685Z,961.14
2017-09-11T05:03:18.307Z,961.15
2017-09-11T05:04:28.581Z,961.13
2017-09-11T05:05:38.561Z,961.07
2017-09-11T05:06:48.824Z,961.03
2017-09-11T05:07:58.767Z,960.98
2017-09-11T05:09:08.392Z,961.01
2017-09-11T05:10:18.333Z,961.03
2017-09-11T05:11:28.590Z,961.09
2017-09-11T05:12:38.531Z,961.07
2017-09-11T05:13:48.472Z,961.07
2017-09-11T05:14:58.740Z,961.07
2017-09-11T05:16:08.361Z,961.08
2017-09-11T05:17:18.306Z,961.09
2017-09-11T05:18:28.572Z,961.13
2017-09-11T05:19:38.838Z,961.16
2017-09-11T05:20:49.100Z,961.16
2017-09-11T05:21:59.042Z,961.12
2017-09-11T05:23:09.311Z,961.09
2017-09-11T05:24:19.261Z,961.14
2017-09-11T05:25:29.538Z,961.13
2017-09-11T05:26:39.799Z,961.1
2017-09-11T05:27:49.420Z,961.12
2017-09-11T05:28:59.690Z,961.09
2017-09-11T05:30:09.955Z,961.04
2017-09-11T05:31:19.895Z,961.07
2017-09-11T05:32:30.159Z,961.09
2017-09-11T05:33:40.429Z,961.06
2017-09-11T05:34:50.386Z,961.04
2017-09-11T05:36:00.655Z,961.09
2017-09-11T05:37:10.276Z,961.08
2017-09-11T05:38:20.535Z,961.05
2017-09-11T05:39:30.475Z,961
2017-09-11T05:40:40.742Z,960.99
2017-09-11T05:41:51.014Z,960.97
2017-09-11T05:43:01.282Z,960.96
2017-09-11T05:44:11.608Z,960.98
2017-09-11T05:45:21.553Z,961.03
2017-09-11T05:46:31.822Z,961.07
2017-09-11T05:47:42.085Z,961.06
2017-09-11T05:48:52.373Z,961.04
2017-09-11T05:50:02.637Z,961.07
2017-09-11T05:51:12.906Z,961.05
2017-09-11T05:52:23.166Z,961.07
2017-09-11T05:53:33.429Z,961.08
2017-09-11T05:54:43.376Z,961.08
2017-09-11T05:55:53.320Z,961.01
2017-09-11T05:57:03.582Z,960.99
2017-09-11T05:58:13.847Z,960.95
2017-09-11T05:59:23.465Z,961.01
2017-09-11T06:00:33.728Z,961
2017-09-11T06:01:43.992Z,961
2017-09-11T06:02:54.256Z,961.02
2017-09-11T06:04:04.527Z,960.97
2017-09-11T06:05:14.792Z,961.08
2017-09-11T06:06:24.736Z,961.05
2017-09-11T06:07:34.703Z,961.02
2017-09-11T06:08:44.982Z,961.01
2017-09-11T06:09:55.276Z,960.99
2017-09-11T06:11:05.223Z,960.95
2017-09-11T06:12:15.164Z,960.97
2017-09-11T06:13:25.435Z,960.98
2017-09-11T06:14:35.699Z,961.02
2017-09-11T06:15:45.317Z,960.99
2017-09-11T06:16:55.615Z,960.97
2017-09-11T06:18:05.884Z,960.96
2017-09-11T06:19:16.144Z,960.96
2017-09-11T06:20:25.452Z,960.93
2017-09-11T06:21:35.715Z,960.93
2017-09-11T06:22:45.012Z,960.95
2017-09-11T06:23:54.966Z,960.9
2017-09-11T06:25:05.244Z,960.89
2017-09-11T06:26:15.191Z,960.95
2017-09-11T06:27:25.129Z,960.93
2017-09-11T06:28:35.073Z,960.92
2017-09-11T06:29:45.012Z,960.94
2017-09-11T06:30:54.312Z,961.01
2017-09-11T06:32:04.256Z,960.94
2017-09-11T06:33:14.199Z,960.94
2017-09-11T06:34:24.141Z,960.97
2017-09-11T06:35:34.412Z,960.94
2017-09-11T06:36:44.675Z,960.96
2017-09-11T06:37:54.941Z,960.93
2017-09-11T06:39:05.203Z,960.87
2017-09-11T06:40:15.466Z,960.9
2017-09-11T06:41:25.742Z,960.94
2017-09-11T06:42:35.360Z,960.87
2017-09-11T06:43:45.308Z,960.81
2017-09-11T06:44:54.927Z,960.78
2017-09-11T06:46:05.218Z,960.8
2017-09-11T06:47:15.484Z,960.83
2017-09-11T06:48:25.747Z,960.77
2017-09-11T06:49:35.690Z,960.78
2017-09-11T06:50:45.638Z,960.78
2017-09-11T06:51:54.964Z,960.73
2017-09-11T06:53:04.907Z,960.68
2017-09-11T06:54:14.847Z,960.71
2017-09-11T06:55:25.109Z,960.76
2017-09-11T06:56:35.379Z,960.81
2017-09-11T06:57:45.639Z,960.84
2017-09-11T06:58:55.904Z,960.71
2017-09-11T07:00:05.847Z,960.7
2017-09-11T07:01:15.784Z,960.7
2017-09-11T07:02:26.048Z,960.79
2017-09-11T07:03:35.986Z,960.72
2017-09-11T07:04:46.250Z,960.8
2017-09-11T07:05:56.202Z,960.8
2017-09-11T07:07:06.159Z,960.76
2017-09-11T07:08:16.421Z,960.72
2017-09-11T07:09:26.366Z,960.72
2017-09-11T07:10:36.310Z,960.71
2017-09-11T07:11:46.252Z,960.7
2017-09-11T07:12:56.521Z,960.68
2017-09-11T07:14:06.473Z,960.67
2017-09-11T07:15:16.417Z,960.73
2017-09-11T07:16:26.681Z,960.78
2017-09-11T07:17:36.306Z,960.78
2017-09-11T07:18:45.931Z,960.73
2017-09-11T07:19:55.879Z,960.81
2017-09-11T07:21:05.504Z,960.82
2017-09-11T07:22:15.769Z,960.84
2017-09-11T07:23:25.713Z,960.82
2017-09-11T07:24:35.983Z,960.73
2017-09-11T07:25:46.261Z,960.73
2017-09-11T07:26:56.532Z,960.68
2017-09-11T07:28:06.477Z,960.65
2017-09-11T07:29:16.743Z,960.72
2017-09-11T07:30:27.003Z,960.67
2017-09-11T07:31:37.302Z,960.68
2017-09-11T07:32:47.567Z,960.8
2017-09-11T07:33:57.839Z,960.76
2017-09-11T07:35:08.105Z,960.69
2017-09-11T07:36:18.050Z,960.76
2017-09-11T07:37:27.670Z,960.79
2017-09-11T07:38:37.286Z,960.77
2017-09-11T07:39:47.550Z,960.65
2017-09-11T07:40:57.813Z,960.66
2017-09-11T07:42:08.088Z,960.77
2017-09-11T07:43:18.393Z,960.8
2017-09-11T07:44:28.658Z,960.73
2017-09-11T07:45:38.601Z,960.87
2017-09-11T07:46:48.546Z,960.8
2017-09-11T07:47:58.818Z,960.79
2017-09-11T07:49:09.076Z,960.83
2017-09-11T07:50:19.024Z,960.84
2017-09-11T07:51:28.646Z,960.82
2017-09-11T07:52:38.267Z,960.79
2017-09-11T07:53:47.886Z,960.85
2017-09-11T07:54:57.831Z,960.83
2017-09-11T07:56:07.774Z,960.8
2017-09-11T07:57:18.049Z,960.79
2017-09-11T07:58:27.993Z,960.75
2017-09-11T07:59:37.935Z,960.65
2017-09-11T08:00:48.204Z,960.61
2017-09-11T08:01:58.503Z,960.65
2017-09-11T08:03:08.765Z,960.62
2017-09-11T08:04:18.389Z,960.63
2017-09-11T08:05:28.334Z,960.68
2017-09-11T08:06:38.608Z,960.64
2017-09-11T08:07:48.872Z,960.65
2017-09-11T08:08:59.135Z,960.68
2017-09-11T08:10:09.396Z,960.67
2017-09-11T08:11:19.683Z,960.7
2017-09-11T08:12:29.626Z,960.68
2017-09-11T08:13:39.569Z,960.71
2017-09-11T08:14:49.828Z,960.65
2017-09-11T08:15:59.800Z,960.68
2017-09-11T08:17:09.419Z,960.72
2017-09-11T08:18:19.695Z,960.78
2017-09-11T08:19:29.639Z,960.75
2017-09-11T08:20:42.157Z,960.74
2017-09-11T08:21:52.101Z,960.73
2017-09-11T08:23:02.367Z,960.68
2017-09-11T08:24:12.640Z,960.7
2017-09-11T08:25:22.275Z,960.58
2017-09-11T08:26:32.215Z,960.53
2017-09-11T08:27:42.480Z,960.55
2017-09-11T08:28:52.426Z,960.5
2017-09-11T08:30:02.372Z,960.46
2017-09-11T08:31:12.345Z,960.56
2017-09-11T08:32:22.290Z,960.6
2017-09-11T08:33:31.912Z,960.5
2017-09-11T08:34:41.533Z,960.52
2017-09-11T08:35:51.796Z,960.52
2017-09-11T08:37:02.062Z,960.55
2017-09-11T08:38:12.013Z,960.56
2017-09-11T08:39:21.960Z,960.57
2017-09-11T08:40:32.224Z,960.47
2017-09-11T08:41:42.168Z,960.57
2017-09-11T08:42:52.110Z,960.54
2017-09-11T08:44:02.063Z,960.53
2017-09-11T08:45:12.016Z,960.55
2017-09-11T08:46:22.277Z,960.53
2017-09-11T08:47:32.546Z,960.49
2017-09-11T08:48:42.813Z,960.53
2017-09-11T08:49:53.073Z,960.59
2017-09-11T08:51:02.692Z,960.5
2017-09-11T08:52:12.647Z,960.53
2017-09-11T08:53:22.590Z,960.52
2017-09-11T08:54:32.538Z,960.47
2017-09-11T08:55:42.485Z,960.52
2017-09-11T08:56:52.433Z,960.5
2017-09-11T08:58:02.697Z,960.56
2017-09-11T08:59:11.999Z,960.51
2017-09-11T09:00:21.948Z,960.49
2017-09-11T09:01:31.889Z,960.51
2017-09-11T09:02:41.832Z,960.46
2017-09-11T09:03:51.775Z,960.56
2017-09-11T09:05:02.037Z,960.49
2017-09-11T09:06:11.982Z,960.48
2017-09-11T09:07:21.925Z,960.4
2017-09-11T09:08:31.870Z,960.45
2017-09-11T09:09:41.491Z,960.43
2017-09-11T09:10:51.437Z,960.45
2017-09-11T09:12:01.715Z,960.47
2017-09-11T09:13:11.017Z,960.51
2017-09-11T09:14:20.967Z,960.54
2017-09-11T09:15:30.906Z,960.52
2017-09-11T09:16:40.530Z,960.53
2017-09-11T09:17:50.473Z,960.5
2017-09-11T09:19:00.098Z,960.5
2017-09-11T09:20:10.367Z,960.46
2017-09-11T09:21:20.316Z,960.46
2017-09-11T09:22:30.258Z,960.43
2017-09-11T09:23:40.213Z,960.36
2017-09-11T09:24:49.832Z,960.36
2017-09-11T09:25:59.457Z,960.46
2017-09-11T09:27:09.720Z,960.42
2017-09-11T09:28:19.662Z,960.42
2017-09-11T09:29:29.608Z,960.48
2017-09-11T09:30:39.555Z,960.44
2017-09-11T09:31:49.492Z,960.46
2017-09-11T09:32:59.760Z,960.37
2017-09-11T09:34:09.704Z,960.47
2017-09-11T09:35:19.649Z,960.39
2017-09-11T09:36:29.914Z,960.46
2017-09-11T09:37:40.190Z,960.45
2017-09-11T09:38:50.457Z,960.44
2017-09-11T09:40:00.093Z,960.53
2017-09-11T09:41:10.061Z,960.4
2017-09-11T09:42:20.006Z,960.4
2017-09-11T09:43:29.629Z,960.41
2017-09-11T09:44:39.570Z,960.41
2017-09-11T09:45:49.519Z,960.45
2017-09-11T09:46:59.784Z,960.46
2017-09-11T09:48:09.412Z,960.44
2017-09-11T09:49:18.734Z,960.41
2017-09-11T09:50:29.005Z,960.42
2017-09-11T09:51:38.945Z,960.39
2017-09-11T09:52:49.211Z,960.49
2017-09-11T09:53:59.475Z,960.47
2017-09-11T09:55:09.416Z,960.46
2017-09-11T09:56:19.361Z,960.34
2017-09-11T09:57:29.617Z,960.38
2017-09-11T09:58:39.879Z,960.37
2017-09-11T09:59:49.900Z,960.4
2017-09-11T10:00:59.849Z,960.29
2017-09-11T10:02:09.472Z,960.36
2017-09-11T10:03:19.735Z,960.37
2017-09-11T10:04:29.706Z,960.33
2017-09-11T10:05:39.334Z,960.32
2017-09-11T10:06:49.283Z,960.33
2017-09-11T10:07:59.235Z,960.33
2017-09-11T10:09:09.507Z,960.33
2017-09-11T10:10:19.778Z,960.36
2017-09-11T10:11:29.402Z,960.37
2017-09-11T10:12:39.667Z,960.34
2017-09-11T10:13:49.940Z,960.32
2017-09-11T10:15:00.212Z,960.32
2017-09-11T10:16:10.158Z,960.25
2017-09-11T10:17:20.102Z,960.29
2017-09-11T10:18:30.046Z,960.25
2017-09-11T10:19:39.986Z,960.27
2017-09-11T10:20:50.258Z,960.27
2017-09-11T10:22:00.199Z,960.17
2017-09-11T10:23:10.154Z,960.19
2017-09-11T10:24:20.109Z,960.16
2017-09-11T10:25:30.067Z,960.08
2017-09-11T10:26:40.328Z,960.08
2017-09-11T10:27:50.272Z,960.05
2017-09-11T10:29:00.537Z,960.05
2017-09-11T10:30:10.482Z,960.08
2017-09-11T10:31:20.427Z,960.05
2017-09-11T10:32:30.047Z,960.03
2017-09-11T10:33:40.319Z,960.04
2017-09-11T10:34:50.360Z,959.99
2017-09-11T10:36:00.296Z,960.03
2017-09-11T10:37:09.920Z,960
2017-09-11T10:38:20.181Z,960
2017-09-11T10:39:30.125Z,960.06
2017-09-11T10:40:39.750Z,959.97
2017-09-11T10:41:50.021Z,959.96
2017-09-11T10:43:00.282Z,959.93
2017-09-11T10:44:10.229Z,959.98
2017-09-11T10:45:20.184Z,959.92
2017-09-11T10:46:30.140Z,959.97
2017-09-11T10:47:39.762Z,959.93
2017-09-11T10:48:49.392Z,959.99
2017-09-11T10:49:59.011Z,959.98
2017-09-11T10:51:09.274Z,960.06
2017-09-11T10:52:19.218Z,960.07
2017-09-11T10:53:28.842Z,960
2017-09-11T10:54:39.153Z,960.06
2017-09-11T10:55:49.098Z,960.01
2017-09-11T10:56:59.361Z,959.97
2017-09-11T10:58:09.303Z,959.95
2017-09-11T10:59:18.925Z,959.99
2017-09-11T11:00:28.869Z,959.99
2017-09-11T11:01:39.137Z,959.91
2017-09-11T11:02:49.407Z,960
2017-09-11T11:03:59.677Z,960
2017-09-11T11:05:09.938Z,959.98
2017-09-11T11:06:20.207Z,960.03
2017-09-11T11:07:30.467Z,960.08
2017-09-11T11:08:40.087Z,959.98
2017-09-11T11:09:50.352Z,959.97
2017-09-11T11:11:00.290Z,960.04
2017-09-11T11:12:10.240Z,960.04
2017-09-11T11:13:20.185Z,960.03
2017-09-11T11:14:30.129Z,960.04
2017-09-11T11:15:40.083Z,960
2017-09-11T11:16:50.382Z,959.98
2017-09-11T11:18:00.647Z,959.91
2017-09-11T11:19:10.268Z,959.92
2017-09-11T11:20:20.531Z,959.88
2017-09-11T11:21:30.472Z,959.94
2017-09-11T11:22:40.739Z,959.88
2017-09-11T11:23:51.003Z,959.83
2017-09-11T11:25:01.286Z,959.79
2017-09-11T11:26:11.549Z,959.85
2017-09-11T11:27:21.493Z,959.81
2017-09-11T11:28:31.754Z,959.82
2017-09-11T11:29:41.696Z,959.8
2017-09-11T11:30:51.638Z,959.74
2017-09-11T11:32:01.905Z,959.81
2017-09-11T11:33:11.847Z,959.78
2017-09-11T11:34:21.800Z,959.73
2017-09-11T11:35:31.743Z,959.82
2017-09-11T11:36:41.367Z,959.82
2017-09-11T11:37:51.311Z,959.85
2017-09-11T11:39:01.577Z,959.81
2017-09-11T11:40:11.199Z,959.83
2017-09-11T11:41:21.148Z,959.92
2017-09-11T11:42:31.411Z,959.82
2017-09-11T11:43:41.047Z,959.82
2017-09-11T11:44:51.316Z,959.86
2017-09-11T11:46:01.265Z,959.86
2017-09-11T11:47:11.537Z,959.91
2017-09-11T11:48:21.158Z,959.87
2017-09-11T11:49:30.782Z,959.84
2017-09-11T11:50:40.760Z,959.89
2017-09-11T11:51:50.704Z,959.92
2017-09-11T11:53:00.644Z,959.98
2017-09-11T11:54:10.271Z,960.03
2017-09-11T11:55:19.900Z,960.01
2017-09-11T11:56:29.520Z,959.98
2017-09-11T11:57:39.467Z,959.94
2017-09-11T11:58:49.734Z,959.98
2017-09-11T11:59:59.997Z,959.91
2017-09-11T12:01:09.619Z,959.98
2017-09-11T12:02:19.887Z,959.99
2017-09-11T12:03:29.830Z,960.02
2017-09-11T12:04:40.094Z,959.92
2017-09-11T12:05:49.714Z,959.95
2017-09-11T12:06:59.660Z,959.93
2017-09-11T12:08:09.289Z,959.92
2017-09-11T12:09:19.234Z,959.93
2017-09-11T12:10:29.173Z,959.86
2017-09-11T12:11:39.431Z,959.88
2017-09-11T12:12:49.710Z,959.94
2017-09-11T12:13:59.334Z,959.93
2017-09-11T12:15:09.286Z,959.86
2017-09-11T12:16:19.549Z,959.86
2017-09-11T12:17:29.820Z,959.93
2017-09-11T12:18:39.761Z,959.89
2017-09-11T12:19:49.703Z,959.81
2017-09-11T12:20:59.005Z,959.86
2017-09-11T12:22:09.272Z,959.82
2017-09-11T12:23:19.547Z,959.83
2017-09-11T12:24:29.813Z,959.8
2017-09-11T12:25:39.756Z,959.83
2017-09-11T12:26:50.022Z,959.82
2017-09-11T12:27:59.645Z,959.84
2017-09-11T12:29:09.909Z,959.81
2017-09-11T12:30:19.850Z,959.83
2017-09-11T12:31:29.468Z,959.84
2017-09-11T12:32:39.410Z,959.72
2017-09-11T12:33:49.675Z,959.73
2017-09-11T12:34:59.618Z,959.71
2017-09-11T12:36:09.027Z,959.73
2017-09-11T12:37:19.293Z,959.79
2017-09-11T12:38:29.560Z,959.81
2017-09-11T12:39:39.502Z,959.79
2017-09-11T12:40:49.450Z,959.72
2017-09-11T12:41:59.391Z,959.69
2017-09-11T12:43:09.011Z,959.84
2017-09-11T12:44:19.278Z,959.75
2017-09-11T12:45:29.220Z,959.79
2017-09-11T12:46:39.164Z,959.81
2017-09-11T12:47:49.112Z,959.85
2017-09-11T12:48:59.376Z,959.85
2017-09-11T12:50:09.320Z,959.96
2017-09-11T12:51:19.584Z,959.98
2017-09-11T12:52:29.539Z,959.92
2017-09-11T12:53:39.799Z,959.96
2017-09-11T12:54:49.433Z,959.98
2017-09-11T12:55:59.056Z,959.99
2017-09-11T12:57:08.998Z,959.99
2017-09-11T12:58:18.952Z,959.99
2017-09-11T12:59:29.219Z,959.89
2017-09-11T13:00:39.487Z,960.01
2017-09-11T13:01:49.113Z,960.02
2017-09-11T13:02:59.383Z,959.97
2017-09-11T13:04:09.331Z,959.94
2017-09-11T13:05:19.604Z,959.95
2017-09-11T13:06:29.847Z,959.93
2017-09-11T13:07:40.116Z,959.9
2017-09-11T13:08:50.382Z,959.85
2017-09-11T13:10:00.323Z,959.94
2017-09-11T13:11:10.592Z,959.91
2017-09-11T13:12:20.889Z,959.85
2017-09-11T13:13:31.151Z,959.8
2017-09-11T13:14:41.456Z,959.78
2017-09-11T13:15:51.784Z,959.82
2017-09-11T13:17:01.406Z,959.85
2017-09-11T13:18:11.669Z,959.85
2017-09-11T13:19:21.619Z,959.85
2017-09-11T13:20:31.564Z,959.88
2017-09-11T13:21:41.543Z,959.87
2017-09-11T13:22:51.489Z,959.91
2017-09-11T13:24:01.758Z,959.98
2017-09-11T13:25:11.383Z,959.92
2017-09-11T13:26:21.322Z,959.93
2017-09-11T13:27:31.584Z,959.93
2017-09-11T13:28:41.529Z,959.94
2017-09-11T13:29:51.476Z,959.92
2017-09-11T13:31:01.742Z,959.92
2017-09-11T13:32:12.008Z,959.83
2017-09-11T13:33:22.281Z,959.9
2017-09-11T13:34:32.256Z,959.85
2017-09-11T13:35:42.524Z,959.86
2017-09-11T13:36:52.150Z,959.88
2017-09-11T13:38:01.776Z,959.84
2017-09-11T13:39:12.048Z,959.84
2017-09-11T13:40:21.999Z,959.92
2017-09-11T13:41:32.273Z,959.92
2017-09-11T13:42:42.220Z,959.95
2017-09-11T13:43:52.490Z,959.92
2017-09-11T13:45:02.442Z,959.89
2017-09-11T13:46:12.708Z,959.95
2017-09-11T13:47:22.980Z,959.91
2017-09-11T13:48:32.926Z,959.94
2017-09-11T13:49:42.874Z,959.92
2017-09-11T13:50:53.142Z,959.96
2017-09-11T13:52:03.414Z,959.9
2017-09-11T13:53:13.353Z,959.84
2017-09-11T13:54:23.296Z,959.86
2017-09-11T13:55:33.239Z,959.87
2017-09-11T13:56:43.181Z,959.88
2017-09-11T13:57:53.453Z,959.85
2017-09-11T13:59:03.730Z,959.84
2017-09-11T14:00:14.000Z,959.88
2017-09-11T14:01:23.633Z,959.91
2017-09-11T14:02:33.593Z,959.83
2017-09-11T14:03:43.216Z,959.92
2017-09-11T14:04:53.481Z,959.83
2017-09-11T14:06:03.425Z,959.82
2017-09-11T14:07:13.373Z,959.83
2017-09-11T14:08:22.996Z,959.82
2017-09-11T14:09:32.942Z,959.84
2017-09-11T14:10:45.236Z,959.85
2017-09-11T14:11:55.503Z,959.83
2017-09-11T14:13:05.767Z,959.83
2017-09-11T14:14:16.031Z,959.73
2017-09-11T14:15:26.326Z,959.75
2017-09-11T14:16:36.267Z,959.67
2017-09-11T14:17:45.568Z,959.69
2017-09-11T14:18:55.853Z,959.66
2017-09-11T14:20:06.118Z,959.69
2017-09-11T14:21:16.382Z,959.74
2017-09-11T14:22:26.330Z,959.75
2017-09-11T14:23:36.279Z,959.78
2017-09-11T14:24:46.230Z,959.8
2017-09-11T14:25:56.496Z,959.78
2017-09-11T14:27:06.119Z,959.82
2017-09-11T14:28:15.748Z,959.89
2017-09-11T14:29:25.691Z,959.92
2017-09-11T14:30:35.635Z,959.95
2017-09-11T14:31:45.579Z,959.88
2017-09-11T14:32:55.848Z,959.99
2017-09-11T14:34:05.791Z,959.95
2017-09-11T14:35:15.413Z,959.94
2017-09-11T14:36:25.675Z,959.78
2017-09-11T14:37:35.622Z,959.89